Skip Navigation Links
NOAA logo - Click to go to the NOAA homepage
NOAA's National Weather Service
Alaska Aviation Weather Unit
  NWS logo - Click to go to the NWS homepage
Left Navbar Graphic     22 AKDT = 06 GMT

   
NOAA is celebrating 200 years of science, service, and stewardship. Visit the NOAA 200th celebration Web site to learn more.
USA.gov is the U.S. Government's official Web portal to all Federal, state and local government Web resources and services.
Facebook
NWS on Facebook

Important Change Regarding the AAWU Web Presence

 

Over the last several months, the AAWU has been working to navigate its webpages to a nationally supported server. Security, as well as other needs, have necessitated the change.  We have been given an extension for the site changeover while we diligently work at addressing feedback received. As of July 14, 2017, aawu.arh.noaa.gov will be discontinued. The new AAWU web address is weather.gov/aawu. It is now live and will run in-parallel with the old site until it is discontinued on July 14, 2017. Please continue to send any feedback or questions regarding the new webpages to nws.ar.aawu.webauthors@noaa.gov.  Thank you for your patience during this time of transition.
AAWU Home :: Display TAF Add Bookmark
TAF PAIL 260530Z 2606/2706 22005KT 2SM -RA OVC008
      TEMPO 2606/2610 6SM -RA OVC015
     FM261000 16004KT 4SM -RA BR SCT008 OVC012
     FM261200 24003KT P6SM OVC004
     FM270000 23004KT P6SM OVC010=

SPECI PAIL 260038Z 21007KT 4SM -RA BR BKN008 BKN013 OVC028 13/13 A2998 RMK AO2 P0006 T01280128= SPECI PAIL 260049Z 20007KT 5SM -RA BR SCT008 BKN013 OVC028 13/13 A2998 RMK AO2 P0007= METAR PAIL 260053Z 20005KT 7SM -RA SCT008 BKN013 OVC028 13/13 A2998 RMK AO2 SLP152 P0007 T01280128= SPECI PAIL 260151Z 17004KT 7SM -RA SCT008 BKN016 OVC024 13/13 A2997 RMK AO2 P0005= METAR PAIL 260153Z 17005KT 8SM -RA SCT008 BKN016 OVC024 13/13 A2997 RMK AO2 SLP149 P0005 T01280128= SPECI PAIL 260200Z 14003KT 10SM -RA SCT008 OVC012 13/13 A2996 RMK AO2 P0000 T01280128= METAR PAIL 260253Z 13005KT 5SM -RA BR SCT006 BKN011 OVC033 13/13 A2996 RMK AO2 SLP146 P0003 60015 T01280128 56006= PAIL 260428Z 23004KT 2 1/2SM -RA BR OVC008 12/12 A2995 RMK AO2 CIG 005V013 P0000 T01220122= SPECI PAIL 260444Z 23004KT 1 3/4SM -RA BR OVC008 12/12 A2995 RMK AO2 P0001 T01220122= METAR PAIL 260453Z 22005KT 2SM -RA BR BKN008 OVC013 12/12 A2995 RMK AO2 SLP142 P0001 T01220122= METAR PAIL 260553Z AUTO 22005KT 2 1/2SM -RA BR SCT006 BKN010 OVC026 12/12 A2994 RMK AO2 RAE04B23 SLP138 P0001 60018 T01220122 10133 20122 58003 TSNO= SPECI PAIL 260601Z AUTO 22004KT 3SM BR BKN008 BKN012 OVC029 12/12 A2994 RMK AO2 RAE0555 P0000 T01170117 TSNO= SPECI PAIL 260609Z AUTO 22005KT 5SM BR FEW008 BKN014 OVC023 12/12 A2994 RMK AO2 RAE0555 P0000 T01170117 TSNO=
 Alaska TAF Map

NOAA's National Weather Service
Alaska Aviation Weather Unit
6930 Sand Lake Road
Anchorage, AK 99502-1845
Disclaimer
Credits
Glossary
Privacy Policy
About Us
Career Opportunities
Contact AAWU Internet Services Site last modified: April, 17th 2012